createdAt,value
2017-08-09T00:02:03.945Z,20.80
2017-08-09T00:04:30.391Z,20.70
2017-08-09T00:06:56.829Z,20.70
2017-08-09T00:09:23.275Z,20.80
2017-08-09T00:11:49.738Z,20.60
2017-08-09T00:14:16.940Z,20.20
2017-08-09T00:16:43.400Z,20.20
2017-08-09T00:19:10.027Z,20.10
2017-08-09T00:21:36.506Z,20.20
2017-08-09T00:24:02.964Z,20.20
2017-08-09T00:26:29.419Z,20.40
2017-08-09T00:28:55.876Z,20.50
2017-08-09T00:31:22.327Z,20.60
2017-08-09T00:33:49.535Z,20.70
2017-08-09T00:36:16.005Z,20.70
2017-08-09T00:38:42.475Z,20.80
2017-08-09T00:41:08.960Z,20.80
2017-08-09T00:43:35.415Z,20.70
2017-08-09T00:46:02.605Z,20.70
2017-08-09T00:48:29.054Z,20.70
2017-08-09T00:50:55.505Z,20.70
2017-08-09T00:53:21.975Z,20.80
2017-08-09T00:55:49.179Z,20.60
2017-08-09T00:58:15.603Z,20.60
2017-08-09T01:00:42.288Z,20.60
2017-08-09T01:03:09.520Z,20.40
2017-08-09T01:05:35.997Z,20.40
2017-08-09T01:08:03.211Z,20.20
2017-08-09T01:10:30.417Z,20.20
2017-08-09T01:12:56.877Z,20.10
2017-08-09T01:15:23.330Z,20.10
2017-08-09T01:17:49.773Z,20.00
2017-08-09T01:20:16.939Z,20.00
2017-08-09T01:22:44.172Z,19.90
2017-08-09T01:25:11.377Z,19.80
2017-08-09T01:27:37.813Z,19.80
2017-08-09T01:30:04.261Z,19.80
2017-08-09T01:32:30.756Z,19.50
2017-08-09T01:34:57.220Z,19.20
2017-08-09T01:37:23.754Z,19.10
2017-08-09T01:39:50.214Z,19.20
2017-08-09T01:42:16.703Z,19.40
2017-08-09T01:44:43.174Z,19.50
2017-08-09T01:47:09.625Z,19.50
2017-08-09T01:49:36.119Z,19.50
2017-08-09T01:52:02.607Z,19.50
2017-08-09T01:54:29.838Z,19.30
2017-08-09T01:56:56.345Z,19.30
2017-08-09T01:59:22.813Z,19.40
2017-08-09T02:01:49.308Z,19.30
2017-08-09T02:04:15.811Z,19.10
2017-08-09T02:06:42.303Z,19.00
2017-08-09T02:09:08.824Z,18.80
2017-08-09T02:11:35.285Z,18.70
2017-08-09T02:14:01.820Z,18.50
2017-08-09T02:16:28.251Z,18.40
2017-08-09T02:18:54.744Z,18.40
2017-08-09T02:21:21.248Z,18.60
2017-08-09T02:23:47.756Z,18.70
2017-08-09T02:26:14.967Z,18.80
2017-08-09T02:28:41.414Z,18.80
2017-08-09T02:31:07.857Z,18.80
2017-08-09T02:33:34.301Z,18.80
2017-08-09T02:36:00.762Z,18.80
2017-08-09T02:38:27.923Z,18.70
2017-08-09T02:40:54.383Z,18.70
2017-08-09T02:43:20.885Z,18.80
2017-08-09T02:45:47.329Z,18.60
2017-08-09T02:48:13.776Z,18.40
2017-08-09T02:50:40.262Z,18.40
2017-08-09T02:53:06.715Z,18.30
2017-08-09T02:55:33.902Z,18.20
2017-08-09T02:58:00.356Z,18.10
2017-08-09T03:00:26.868Z,18.30
2017-08-09T03:02:53.326Z,18.30
2017-08-09T03:05:19.763Z,18.30
2017-08-09T03:07:46.243Z,18.20
2017-08-09T03:10:12.718Z,18.20
2017-08-09T03:12:39.165Z,18.20
2017-08-09T03:15:05.620Z,18.30
2017-08-09T03:17:32.169Z,18.10
2017-08-09T03:19:59.347Z,18.20
2017-08-09T03:22:25.763Z,18.20
2017-08-09T03:24:52.955Z,18.30
2017-08-09T03:27:19.455Z,18.30
2017-08-09T03:29:45.903Z,18.20
2017-08-09T03:32:12.362Z,18.00
2017-08-09T03:34:38.830Z,17.90
2017-08-09T03:37:05.280Z,17.90
2017-08-09T03:39:32.473Z,17.80
2017-08-09T03:41:58.935Z,17.80
2017-08-09T03:44:25.392Z,17.90
2017-08-09T03:46:52.581Z,17.90
2017-08-09T03:49:19.017Z,17.90
2017-08-09T03:51:45.490Z,17.80
2017-08-09T03:54:11.929Z,17.60
2017-08-09T03:56:38.399Z,17.70
2017-08-09T03:59:04.866Z,17.80
2017-08-09T04:01:31.299Z,17.90
2017-08-09T04:03:57.752Z,17.90
2017-08-09T04:06:24.216Z,17.90
2017-08-09T04:08:51.414Z,17.80
2017-08-09T04:11:17.851Z,17.80
2017-08-09T04:13:44.291Z,17.90
2017-08-09T04:16:10.758Z,17.90
2017-08-09T04:18:37.978Z,17.80
2017-08-09T04:21:04.502Z,17.80
2017-08-09T04:23:30.957Z,17.90
2017-08-09T04:25:57.405Z,17.90
2017-08-09T04:28:24.677Z,17.90
2017-08-09T04:30:51.158Z,17.90
2017-08-09T04:33:17.664Z,18.00
2017-08-09T04:35:44.116Z,17.90
2017-08-09T04:38:10.555Z,18.00
2017-08-09T04:40:37.016Z,18.00
2017-08-09T04:43:03.471Z,18.00
2017-08-09T04:45:30.672Z,18.10
2017-08-09T04:47:57.126Z,18.10
2017-08-09T04:50:23.589Z,18.10
2017-08-09T04:52:50.785Z,18.20
2017-08-09T04:55:17.228Z,18.20
2017-08-09T04:57:43.675Z,18.40
2017-08-09T05:00:10.182Z,18.50
2017-08-09T05:02:36.645Z,18.70
2017-08-09T05:05:03.102Z,18.80
2017-08-09T05:07:29.546Z,18.90
2017-08-09T05:09:56.756Z,19.20
2017-08-09T05:12:23.224Z,19.20
2017-08-09T05:14:49.676Z,19.30
2017-08-09T05:17:16.191Z,19.30
2017-08-09T05:19:43.405Z,19.40
2017-08-09T05:22:09.872Z,19.40
2017-08-09T05:24:36.349Z,19.50
2017-08-09T05:27:02.805Z,19.60
2017-08-09T05:29:29.267Z,19.70
2017-08-09T05:31:55.776Z,19.70
2017-08-09T05:34:22.320Z,19.70
2017-08-09T05:36:48.829Z,19.70
2017-08-09T05:39:15.283Z,19.80
2017-08-09T05:41:41.766Z,19.90
2017-08-09T05:44:08.993Z,20.00
2017-08-09T05:46:35.431Z,20.00
2017-08-09T05:49:02.655Z,20.10
2017-08-09T05:51:29.087Z,20.10
2017-08-09T05:53:55.544Z,20.10
2017-08-09T05:56:21.997Z,20.10
2017-08-09T05:58:49.208Z,20.20
2017-08-09T06:01:15.675Z,20.20
2017-08-09T06:03:42.886Z,20.40
2017-08-09T06:06:09.363Z,20.40
2017-08-09T06:08:36.559Z,20.50
2017-08-09T06:11:02.999Z,20.40
2017-08-09T06:13:29.432Z,20.50
2017-08-09T06:15:55.879Z,20.50
2017-08-09T06:18:22.356Z,20.50
2017-08-09T06:20:49.535Z,20.80
2017-08-09T06:23:15.999Z,20.70
2017-08-09T06:25:42.481Z,21.00
2017-08-09T06:28:08.935Z,21.00
2017-08-09T06:30:35.420Z,21.20
2017-08-09T06:33:02.200Z,21.20
2017-08-09T06:35:28.695Z,21.50
2017-08-09T06:37:55.159Z,21.80
2017-08-09T06:40:22.362Z,22.20
2017-08-09T06:42:48.820Z,22.10
2017-08-09T06:45:15.274Z,22.30
2017-08-09T06:47:42.535Z,22.40
2017-08-09T06:50:09.016Z,22.40
2017-08-09T06:52:35.461Z,22.50
2017-08-09T06:55:01.892Z,22.50
2017-08-09T06:57:28.318Z,22.40
2017-08-09T06:59:54.800Z,22.50
2017-08-09T07:02:21.281Z,22.40
2017-08-09T07:04:47.741Z,22.40
2017-08-09T07:07:14.200Z,22.50
2017-08-09T07:09:41.388Z,22.10
2017-08-09T07:12:07.836Z,22.10
2017-08-09T07:14:34.319Z,22.00
2017-08-09T07:17:00.795Z,22.10
2017-08-09T07:19:27.287Z,22.10
2017-08-09T07:21:54.459Z,22.10
2017-08-09T07:24:20.916Z,22.10
2017-08-09T07:26:47.415Z,22.20
2017-08-09T07:29:13.886Z,22.40
2017-08-09T07:31:40.319Z,22.80
2017-08-09T07:34:07.179Z,23.10
2017-08-09T07:36:33.775Z,23.30
2017-08-09T07:39:00.262Z,23.40
2017-08-09T07:41:26.753Z,23.70
2017-08-09T07:43:53.220Z,23.80
2017-08-09T07:46:19.697Z,23.90
2017-08-09T07:48:46.899Z,23.90
2017-08-09T07:51:13.383Z,23.90
2017-08-09T07:53:39.835Z,24.00
2017-08-09T07:56:06.297Z,23.90
2017-08-09T07:58:33.844Z,23.80
2017-08-09T08:01:00.321Z,23.70
2017-08-09T08:03:27.503Z,23.60
2017-08-09T08:05:53.942Z,23.60
2017-08-09T08:08:20.425Z,23.60
2017-08-09T08:10:47.650Z,23.60
2017-08-09T08:13:14.097Z,23.60
2017-08-09T08:15:40.584Z,23.70
2017-08-09T08:18:07.038Z,23.80
2017-08-09T08:20:33.462Z,23.90
2017-08-09T08:22:59.913Z,24.10
2017-08-09T08:25:26.389Z,24.20
2017-08-09T08:27:52.879Z,24.20
2017-08-09T08:30:19.337Z,24.20
2017-08-09T08:32:45.806Z,24.10
2017-08-09T08:35:13.060Z,24.10
2017-08-09T08:37:39.522Z,24.10
2017-08-09T08:40:05.968Z,24.10
2017-08-09T08:42:32.452Z,24.10
2017-08-09T08:44:59.626Z,24.10
2017-08-09T08:47:26.090Z,24.00
2017-08-09T08:49:52.541Z,24.00
2017-08-09T08:52:18.986Z,23.70
2017-08-09T08:54:45.450Z,23.90
2017-08-09T08:57:12.646Z,24.00
2017-08-09T08:59:39.104Z,24.00
2017-08-09T09:02:05.569Z,24.00
2017-08-09T09:04:32.807Z,24.20
2017-08-09T09:06:59.987Z,24.20
2017-08-09T09:09:26.443Z,24.20
2017-08-09T09:11:52.944Z,24.30
2017-08-09T09:14:19.405Z,24.30
2017-08-09T09:16:45.879Z,24.40
2017-08-09T09:19:12.320Z,24.70
2017-08-09T09:21:38.739Z,24.90
2017-08-09T09:24:05.200Z,24.90
2017-08-09T09:26:32.398Z,24.90
2017-08-09T09:28:58.905Z,24.80
2017-08-09T09:31:25.360Z,25.00
2017-08-09T09:33:51.836Z,25.00
2017-08-09T09:36:18.373Z,24.70
2017-08-09T09:38:44.835Z,24.90
2017-08-09T09:41:12.063Z,25.60
2017-08-09T09:43:39.275Z,25.90
2017-08-09T09:46:05.720Z,25.80
2017-08-09T09:48:32.163Z,26.10
2017-08-09T09:50:58.622Z,26.10
2017-08-09T09:53:25.847Z,26.20
2017-08-09T09:55:52.305Z,26.10
2017-08-09T09:58:18.789Z,26.10
2017-08-09T10:00:45.261Z,26.20
2017-08-09T10:03:11.699Z,26.30
2017-08-09T10:05:38.163Z,26.50
2017-08-09T10:08:05.347Z,27.00
2017-08-09T10:10:31.773Z,27.00
2017-08-09T10:12:58.207Z,27.20
2017-08-09T10:15:24.660Z,27.20
2017-08-09T10:17:51.764Z,27.20
2017-08-09T10:20:18.200Z,27.10
2017-08-09T10:22:44.651Z,27.20
2017-08-09T10:25:11.112Z,27.30
2017-08-09T10:27:37.561Z,27.50
2017-08-09T10:30:04.020Z,27.80
2017-08-09T10:32:31.220Z,28.00
2017-08-09T10:34:57.673Z,28.00
2017-08-09T10:37:24.205Z,28.00
2017-08-09T10:39:50.660Z,27.90
2017-08-09T10:42:17.104Z,28.00
2017-08-09T10:44:43.552Z,28.10
2017-08-09T10:47:10.758Z,28.10
2017-08-09T10:49:37.203Z,28.10
2017-08-09T10:52:03.651Z,27.90
2017-08-09T10:54:30.121Z,27.90
2017-08-09T10:56:56.576Z,27.80
2017-08-09T10:59:23.045Z,27.80
2017-08-09T11:01:49.500Z,27.80
2017-08-09T11:04:16.737Z,27.80
2017-08-09T11:09:18.020Z,27.80
2017-08-09T11:11:44.481Z,28.20
2017-08-09T11:14:10.955Z,28.40
2017-08-09T11:16:37.422Z,28.40
2017-08-09T11:19:04.625Z,28.80
2017-08-09T11:21:31.085Z,28.70
2017-08-09T11:23:57.520Z,28.70
2017-08-09T11:26:23.989Z,28.60
2017-08-09T11:28:50.446Z,28.50
2017-08-09T11:31:16.904Z,28.50
2017-08-09T11:33:43.357Z,28.60
2017-08-09T11:36:09.845Z,28.70
2017-08-09T11:38:36.375Z,28.90
2017-08-09T11:41:02.840Z,28.90
2017-08-09T11:43:29.312Z,29.00
2017-08-09T11:45:56.512Z,29.00
2017-08-09T11:48:22.985Z,29.00
2017-08-09T11:50:49.470Z,29.20
2017-08-09T11:53:15.947Z,29.30
2017-08-09T11:55:42.406Z,29.40
2017-08-09T11:58:08.864Z,29.40
2017-08-09T12:00:35.347Z,29.40
2017-08-09T12:03:01.806Z,29.40
2017-08-09T12:05:29.003Z,29.60
2017-08-09T12:07:55.482Z,29.50
2017-08-09T12:10:21.990Z,29.70
2017-08-09T12:12:48.463Z,29.90
2017-08-09T12:15:14.990Z,30.10
2017-08-09T12:17:41.480Z,30.00
2017-08-09T12:20:08.569Z,30.00
2017-08-09T12:22:35.081Z,29.80
2017-08-09T12:25:01.592Z,29.90
2017-08-09T12:27:28.040Z,30.10
2017-08-09T12:29:54.492Z,30.20
2017-08-09T12:32:20.965Z,30.10
2017-08-09T12:34:47.409Z,30.00
2017-08-09T12:37:13.856Z,29.60
2017-08-09T12:39:40.344Z,29.80
2017-08-09T12:42:06.856Z,29.70
2017-08-09T12:44:33.334Z,29.80
2017-08-09T12:46:59.778Z,29.80
2017-08-09T12:49:26.220Z,29.90
2017-08-09T12:51:52.681Z,30.00
2017-08-09T12:54:19.133Z,30.10
2017-08-09T12:56:45.611Z,30.00
2017-08-09T12:59:12.061Z,29.80
2017-08-09T13:01:38.522Z,29.80
2017-08-09T13:04:04.985Z,29.80
2017-08-09T13:06:32.192Z,30.20
2017-08-09T13:08:58.684Z,30.10
2017-08-09T13:11:26.045Z,29.90
2017-08-09T13:13:52.510Z,29.70
2017-08-09T13:16:18.959Z,29.70
2017-08-09T13:18:45.420Z,29.60
2017-08-09T13:21:11.868Z,29.80
2017-08-09T13:23:38.312Z,29.90
2017-08-09T13:26:05.544Z,30.00
2017-08-09T13:28:32.032Z,30.00
2017-08-09T13:30:58.481Z,29.80
2017-08-09T13:33:24.994Z,30.00
2017-08-09T13:35:51.476Z,29.90
2017-08-09T13:38:17.929Z,30.00
2017-08-09T13:40:44.396Z,30.20
2017-08-09T13:43:10.872Z,30.10
2017-08-09T13:45:37.420Z,30.20
2017-08-09T13:48:04.621Z,30.20
2017-08-09T13:50:31.163Z,30.20
2017-08-09T13:52:57.637Z,30.30
2017-08-09T13:55:24.367Z,30.50
2017-08-09T13:57:50.810Z,30.50
2017-08-09T14:00:17.271Z,30.40
2017-08-09T14:02:43.719Z,30.20
2017-08-09T14:05:10.188Z,30.20
2017-08-09T14:07:36.761Z,30.30
2017-08-09T14:10:03.232Z,30.20
2017-08-09T14:12:29.713Z,30.40
2017-08-09T14:14:56.159Z,30.50
2017-08-09T14:17:22.628Z,30.70
2017-08-09T14:19:49.053Z,30.70
2017-08-09T14:22:15.502Z,30.20
2017-08-09T14:24:41.948Z,30.20
2017-08-09T14:27:08.382Z,30.20
2017-08-09T14:29:34.849Z,30.10
2017-08-09T14:32:01.322Z,30.00
2017-08-09T14:34:27.802Z,30.10
2017-08-09T14:36:54.278Z,30.20
2017-08-09T14:39:20.768Z,30.20
2017-08-09T14:41:47.232Z,30.20
2017-08-09T14:44:13.697Z,30.20
2017-08-09T14:46:40.174Z,30.30
2017-08-09T14:49:06.634Z,30.40
2017-08-09T14:51:33.154Z,30.40
2017-08-09T14:53:59.625Z,30.50
2017-08-09T14:56:26.091Z,30.50
2017-08-09T14:58:52.547Z,30.30
2017-08-09T15:01:18.999Z,30.20
2017-08-09T15:03:45.427Z,30.20
2017-08-09T15:06:11.859Z,30.30
2017-08-09T15:08:38.304Z,30.30
2017-08-09T15:11:05.487Z,30.40
2017-08-09T15:13:31.937Z,30.40
2017-08-09T15:15:58.407Z,30.40
2017-08-09T15:18:24.876Z,30.30
2017-08-09T15:20:51.370Z,30.30
2017-08-09T15:23:24.944Z,30.20
2017-08-09T15:25:51.415Z,30.20
2017-08-09T15:28:17.904Z,30.20
2017-08-09T15:30:44.400Z,30.10
2017-08-09T15:33:10.897Z,30.20
2017-08-09T15:35:37.376Z,30.10
2017-08-09T15:38:04.569Z,30.30
2017-08-09T15:40:31.072Z,30.20
2017-08-09T15:42:57.593Z,30.10
2017-08-09T15:45:24.808Z,30.20
2017-08-09T15:47:51.325Z,30.20
2017-08-09T15:50:17.807Z,30.30
2017-08-09T15:52:44.298Z,30.30
2017-08-09T15:55:10.741Z,30.10
2017-08-09T15:57:37.195Z,30.00
2017-08-09T16:00:03.740Z,30.10
2017-08-09T16:02:30.943Z,30.30
2017-08-09T16:04:57.426Z,30.30
2017-08-09T16:07:23.913Z,30.20
2017-08-09T16:09:50.382Z,30.00
2017-08-09T16:12:16.852Z,29.90
2017-08-09T16:14:44.043Z,29.80
2017-08-09T16:17:10.517Z,29.80
2017-08-09T16:19:36.940Z,29.60
2017-08-09T16:22:03.633Z,29.70
2017-08-09T16:24:30.108Z,30.00
2017-08-09T16:26:56.575Z,30.20
2017-08-09T16:29:23.757Z,30.00
2017-08-09T16:31:50.199Z,30.00
2017-08-09T16:34:16.932Z,30.00
2017-08-09T16:36:43.432Z,29.90
2017-08-09T16:39:10.611Z,30.10
2017-08-09T16:41:37.067Z,30.00
2017-08-09T16:44:03.529Z,29.90
2017-08-09T16:46:30.003Z,29.90
2017-08-09T16:48:56.451Z,29.90
2017-08-09T16:51:22.880Z,30.10
2017-08-09T16:54:02.522Z,30.00
2017-08-09T16:56:28.987Z,29.90
2017-08-09T16:59:09.292Z,30.00
2017-08-09T17:01:36.492Z,29.80
2017-08-09T17:04:02.943Z,29.80
2017-08-09T17:06:29.385Z,29.70
2017-08-09T17:08:55.844Z,29.80
2017-08-09T17:11:22.371Z,29.90
2017-08-09T17:13:49.602Z,29.90
2017-08-09T17:16:16.119Z,29.90
2017-08-09T17:18:42.557Z,29.60
2017-08-09T17:21:09.013Z,29.60
2017-08-09T17:23:35.472Z,29.70
2017-08-09T17:26:04.783Z,29.70
2017-08-09T17:28:31.241Z,29.50
2017-08-09T17:30:57.697Z,29.40
2017-08-09T17:33:24.174Z,29.50
2017-08-09T17:35:51.404Z,29.30
2017-08-09T17:38:25.500Z,29.10
2017-08-09T17:40:51.966Z,29.00
2017-08-09T17:43:19.178Z,29.20
2017-08-09T17:45:45.613Z,29.20
2017-08-09T17:48:12.101Z,29.10
2017-08-09T17:50:39.257Z,29.20
2017-08-09T17:53:05.694Z,29.20
2017-08-09T17:55:32.167Z,29.10
2017-08-09T17:57:58.603Z,29.00
2017-08-09T18:00:25.063Z,29.00
2017-08-09T18:02:51.503Z,29.00
2017-08-09T18:05:18.766Z,29.00
2017-08-09T18:07:45.292Z,29.00
2017-08-09T18:10:12.522Z,28.80
2017-08-09T18:12:39.065Z,28.80
2017-08-09T18:15:05.538Z,28.80
2017-08-09T18:17:32.029Z,28.60
2017-08-09T18:19:58.515Z,28.50
2017-08-09T18:22:25.032Z,28.40
2017-08-09T18:24:51.530Z,28.30
2017-08-09T18:27:18.026Z,28.20
2017-08-09T18:29:44.474Z,28.30
2017-08-09T18:32:10.920Z,28.20
2017-08-09T18:34:37.396Z,28.10
2017-08-09T18:37:04.571Z,28.00
2017-08-09T18:39:31.022Z,28.00
2017-08-09T18:41:57.487Z,27.90
2017-08-09T18:44:23.936Z,27.80
2017-08-09T18:46:50.377Z,27.60
2017-08-09T18:49:17.591Z,27.50
2017-08-09T18:51:44.038Z,27.50
2017-08-09T18:54:10.465Z,27.50
2017-08-09T18:56:36.909Z,27.30
2017-08-09T18:59:03.353Z,27.30
2017-08-09T19:01:29.788Z,27.10
2017-08-09T19:03:56.208Z,27.00
2017-08-09T19:06:22.896Z,26.80
2017-08-09T19:08:49.348Z,26.60
2017-08-09T19:11:15.816Z,26.60
2017-08-09T19:13:42.287Z,26.60
2017-08-09T19:16:08.758Z,26.50
2017-08-09T19:18:35.245Z,26.40
2017-08-09T19:21:02.488Z,26.30
2017-08-09T19:23:29.717Z,26.30
2017-08-09T19:25:56.177Z,26.30
2017-08-09T19:28:23.407Z,26.20
2017-08-09T19:30:49.902Z,26.20
2017-08-09T19:33:16.335Z,26.20
2017-08-09T19:35:42.797Z,26.20
2017-08-09T19:38:09.267Z,26.30
2017-08-09T19:40:35.754Z,26.40
2017-08-09T19:43:02.201Z,26.40
2017-08-09T19:45:28.659Z,26.30
2017-08-09T19:47:55.105Z,26.30
2017-08-09T19:50:22.279Z,26.10
2017-08-09T19:52:48.738Z,26.00
2017-08-09T19:55:15.210Z,26.10
2017-08-09T19:57:57.325Z,25.90
2017-08-09T20:00:24.524Z,25.70
2017-08-09T20:02:50.990Z,25.70
2017-08-09T20:05:17.474Z,25.70
2017-08-09T20:07:43.909Z,25.60
2017-08-09T20:10:10.352Z,25.70
2017-08-09T20:12:37.082Z,25.60
2017-08-09T20:15:03.576Z,25.60
2017-08-09T20:17:30.031Z,25.50
2017-08-09T20:19:56.472Z,25.50
2017-08-09T20:22:22.964Z,25.60
2017-08-09T20:24:49.599Z,25.50
2017-08-09T20:27:16.068Z,25.60
2017-08-09T20:29:43.265Z,25.60
2017-08-09T20:32:09.725Z,25.60
2017-08-09T20:34:36.166Z,25.70
2017-08-09T20:37:03.349Z,25.90
2017-08-09T20:39:29.994Z,25.80
2017-08-09T20:41:56.427Z,25.90
2017-08-09T20:44:22.884Z,25.80
2017-08-09T20:46:49.384Z,25.90
2017-08-09T20:49:15.864Z,25.90
2017-08-09T20:51:42.300Z,25.80
2017-08-09T20:54:08.774Z,25.90
2017-08-09T20:56:35.970Z,25.80
2017-08-09T20:59:02.410Z,25.80
2017-08-09T21:01:28.863Z,25.70
2017-08-09T21:03:55.324Z,25.30
2017-08-09T21:06:22.518Z,25.20
2017-08-09T21:08:48.974Z,25.20
2017-08-09T21:11:15.424Z,25.30
2017-08-09T21:13:41.891Z,25.10
2017-08-09T21:16:08.351Z,25.00
2017-08-09T21:18:34.796Z,25.00
2017-08-09T21:21:01.250Z,25.00
2017-08-09T21:23:27.702Z,25.00
2017-08-09T21:25:54.944Z,24.90
2017-08-09T21:28:21.395Z,24.90
2017-08-09T21:30:48.586Z,24.80
2017-08-09T21:33:15.044Z,24.80
2017-08-09T21:35:41.473Z,24.70
2017-08-09T21:38:07.926Z,24.60
2017-08-09T21:40:34.407Z,24.60
2017-08-09T21:43:00.860Z,24.40
2017-08-09T21:45:27.306Z,24.30
2017-08-09T21:47:53.768Z,24.30
2017-08-09T21:50:20.210Z,24.20
2017-08-09T21:52:46.647Z,24.20
2017-08-09T21:55:13.815Z,24.10
2017-08-09T21:57:40.284Z,24.10
2017-08-09T22:00:06.753Z,24.10
2017-08-09T22:02:33.217Z,24.10
2017-08-09T22:04:59.693Z,24.10
2017-08-09T22:07:26.172Z,24.20
2017-08-09T22:09:53.359Z,24.40
2017-08-09T22:12:19.805Z,24.30
2017-08-09T22:14:46.239Z,24.30
2017-08-09T22:17:12.671Z,24.40
2017-08-09T22:19:39.135Z,24.30
2017-08-09T22:22:05.601Z,24.40
2017-08-09T22:24:32.761Z,24.50
2017-08-09T22:26:59.184Z,24.50
2017-08-09T22:29:25.705Z,24.50
2017-08-09T22:31:52.933Z,24.40
2017-08-09T22:34:19.396Z,24.40
2017-08-09T22:36:46.562Z,24.40
2017-08-09T22:39:13.032Z,24.40
2017-08-09T22:41:39.504Z,24.30
2017-08-09T22:44:06.684Z,24.40
2017-08-09T22:46:33.118Z,24.40
2017-08-09T22:48:59.595Z,24.50
2017-08-09T22:51:26.061Z,24.50
2017-08-09T22:53:53.262Z,24.10
2017-08-09T22:56:19.723Z,24.10
2017-08-09T22:58:46.189Z,24.10
2017-08-09T23:01:13.361Z,23.90
2017-08-09T23:03:39.811Z,23.90
2017-08-09T23:06:06.281Z,23.90
2017-08-09T23:08:32.747Z,24.00
2017-08-09T23:10:59.245Z,24.20
2017-08-09T23:13:25.714Z,24.30
2017-08-09T23:15:52.143Z,24.50
2017-08-09T23:18:19.344Z,24.50
2017-08-09T23:20:45.789Z,24.50
2017-08-09T23:23:12.243Z,24.80
2017-08-09T23:25:38.708Z,25.00
2017-08-09T23:28:05.152Z,25.00
2017-08-09T23:30:31.632Z,25.00
2017-08-09T23:32:58.091Z,25.20
2017-08-09T23:35:25.299Z,25.10
2017-08-09T23:37:51.731Z,25.10
2017-08-09T23:40:18.203Z,25.00
2017-08-09T23:42:45.406Z,24.90
2017-08-09T23:45:11.852Z,24.90
2017-08-09T23:47:38.293Z,24.90
2017-08-09T23:50:04.728Z,24.90
2017-08-09T23:52:31.199Z,24.80
2017-08-09T23:54:58.374Z,24.80
2017-08-09T23:57:24.832Z,24.80
2017-08-09T23:59:51.257Z,24.80
